• Join FlightAware (Why Join?)
  • Login
  • US Flag 
06:07PM EDT


 

Airport Tracker/Info


-or-


 

Live Flight TrackerFlight Track Log ✈ N762NC ✈ 20-Oct-2013 ✈ KATL - KBHM

Flight Track Log - Related Links

Times and Time Zones

All times are in EDT time to prevent confusion due to time zone crossing. See the N762NC flight status page for this flight to view local times or setup timezone preferences in your user account.

Time Position Orientation Groundspeed Altitude Reporting Facility
EDT Latitude Longitude Course Direction KTS MPH feet Rate Location/Type
03:39PM 33.6517 -84.4781 261° West 387 445 2,700  Level Atlanta Center
03:40PM 33.6667 -84.5500 284° West 266 306 5,300 2,400 Climbing Atlanta TRACON
03:42PM 33.6260 -84.8775 276° West  Level Estimated
03:42PM 33.7358 -84.7308 295° West 285 328 10,000  Level Atlanta Center
03:43PM 33.6231 -84.9899 259° West  Level Estimated
03:43PM 33.7353 -84.8331 270° West 295 339 11,200  Level Atlanta Center
03:44PM 33.6201 -85.1023 261° West  Level Estimated
03:44PM 33.7325 -84.9381 268° West 308 354 13,800  Level Atlanta Center
03:45PM 33.7297 -85.0428 268° West 313 360 16,300 2,040 Climbing Atlanta Center
03:46PM 33.7267 -85.1353 268° West 313 360 17,900 1,620 Climbing Atlanta Center
03:47PM 33.7236 -85.2478 268° West 318 366 19,600 1,020 Climbing Atlanta Center
03:48PM 33.7183 -85.3650 267° West 342 394 20,000 60 Climbing Atlanta Center
03:49PM 33.7231 -85.4875 273° West 362 417 19,800 -1,200 Descending Atlanta Center
03:50PM 33.7383 -85.6025 279° West 367 422 17,600 -2,040 Descending Atlanta Center
03:51PM 33.7328 -85.7100 266° West 337 388 15,800 -1,860 Descending Atlanta Center
03:52PM 33.7186 -85.8219 261° West 325 374 13,900 -1,860 Descending Atlanta Center
03:53PM 33.7089 -85.9317 264° West 330 380 12,100 -1,920 Descending Atlanta Center
03:53PM 33.7017 -85.9914 262° West 340 391 11,200 -1,200 Descending Atlanta Center
03:54PM 33.6986 -86.0489 266° West 336 387 10,900 -240 Descending Atlanta Center
03:54PM 33.6978 -86.1036 269° West 338 389 11,000 60 Climbing Atlanta Center
03:55PM 33.6967 -86.1536 268° West 336 387 11,000  Level Atlanta Center
03:55PM 33.6981 -86.2011 272° West 326 375 11,000  Level Atlanta Center
03:56PM 33.6969 -86.2711 269° West 336 387 11,000  Level Atlanta Center
03:56PM 33.6958 -86.3183 268° West 356 410 11,000  Level Atlanta Center
03:57PM 33.6925 -86.3883 267° West 348 400 11,000  Level Atlanta Center
03:58PM 33.6769 -86.4378 249° West 341 392 11,000 -720 Level Atlanta Center
03:58PM 33.6572 -86.4822 242° Southwest 319 367 10,300 -1,020 Descending Atlanta Center
03:59PM 33.6356 -86.5239 238° Southwest 279 321 10,000 -1,140 Descending Atlanta Center
03:59PM 33.6225 -86.5583 246° West 300 345 9,200 -1,620 Descending Atlanta Center
04:00PM 33.5986 -86.6025 237° Southwest 254 292 8,400 -1,500 Descending Atlanta Center
04:00PM 33.5814 -86.6294 233° Southwest 273 314 7,700 -1,740 Descending Atlanta Center
04:01PM 33.5489 -86.6733 228° Southwest 254 292 6,500 -1,800 Descending Atlanta Center
04:01PM 33.5339 -86.6928 227° Southwest 262 302 5,900 -1,500 Descending Atlanta Center
04:02PM 33.5017 -86.7392 230° Southwest 259 298 5,000 -1,020 Descending Atlanta Center
04:02PM 33.4886 -86.7589 232° Southwest 262 302 4,900 -120 Descending Atlanta Center
04:03PM 33.4586 -86.8000 229° Southwest 229 264 4,900 -1,020 Level Atlanta Center
04:04PM 33.4303 -86.8539 238° Southwest 216 249 3,400 -1,020 Descending Atlanta Center
04:05PM 33.4750 -86.9028 318° Northwest 205 236 2,800 -600 Descending Atlanta Center
04:06PM 33.5075 -86.8489 54° Northeast 175 201 2,100 -780 Descending Atlanta Center
04:07PM 33.5292 -86.8125 54° Northeast 161 185 1,400 -780 Descending Atlanta Center